createdAt,value
2019-01-13T00:00:44.490Z,834.70
2019-01-13T00:02:51.794Z,999.90
2019-01-13T00:05:06.634Z,999.90
2019-01-13T00:07:08.989Z,780.77
2019-01-13T00:09:13.630Z,645.23
2019-01-13T00:11:18.338Z,550.60
2019-01-13T00:13:22.564Z,473.83
2019-01-13T00:15:26.951Z,420.43
2019-01-13T00:17:31.152Z,396.80
2019-01-13T00:19:35.796Z,379.80
2019-01-13T00:21:40.099Z,362.80
2019-01-13T00:23:44.414Z,354.80
2019-01-13T00:25:48.750Z,692.77
2019-01-13T00:27:54.814Z,910.43
2019-01-13T00:30:06.567Z,792.87
2019-01-13T00:32:12.140Z,859.43
2019-01-13T00:34:16.321Z,736.17
2019-01-13T00:36:20.769Z,539.03
2019-01-13T00:38:27.961Z,506.93
2019-01-13T00:40:35.559Z,612.53
2019-01-13T00:42:40.886Z,622.63
2019-01-13T00:44:45.166Z,615.27
2019-01-13T00:46:49.813Z,575.93
2019-01-13T00:48:57.939Z,548.30
2019-01-13T00:51:04.700Z,514.40
2019-01-13T00:53:14.912Z,501.17
2019-01-13T00:55:19.352Z,475.67
2019-01-13T00:57:24.385Z,477.57
2019-01-13T00:59:28.880Z,580.97
2019-01-13T01:01:33.156Z,698.13
2019-01-13T01:03:37.421Z,671.93
2019-01-13T01:05:41.831Z,650.90
2019-01-13T01:07:48.382Z,622.47
2019-01-13T01:09:53.036Z,608.40
2019-01-13T01:11:58.071Z,606.73
2019-01-13T01:14:05.905Z,659.13
2019-01-13T01:16:20.146Z,776.23
2019-01-13T01:18:24.867Z,761.00
2019-01-13T01:20:29.350Z,787.50
2019-01-13T01:22:33.663Z,557.30
2019-01-13T01:24:38.950Z,516.50
2019-01-13T01:26:43.455Z,516.30
2019-01-13T01:28:48.150Z,573.97
2019-01-13T01:30:52.441Z,862.37
2019-01-13T01:32:56.828Z,485.13
2019-01-13T01:35:02.022Z,498.63
2019-01-13T01:37:09.429Z,922.00
2019-01-13T01:39:20.915Z,602.07
2019-01-13T01:41:25.228Z,765.50
2019-01-13T01:43:30.048Z,813.50
2019-01-13T01:45:36.662Z,637.43
2019-01-13T01:47:44.944Z,600.27
2019-01-13T01:49:54.035Z,492.23
2019-01-13T01:51:58.888Z,565.27
2019-01-13T01:54:04.332Z,623.30
2019-01-13T01:56:08.728Z,620.57
2019-01-13T01:58:12.920Z,595.27
2019-01-13T02:00:19.856Z,588.77
2019-01-13T02:02:24.140Z,559.17
2019-01-13T02:04:28.673Z,541.07
2019-01-13T02:06:33.274Z,523.83
2019-01-13T02:08:39.299Z,508.40
2019-01-13T02:10:44.071Z,491.33
2019-01-13T02:12:53.581Z,472.67
2019-01-13T02:14:58.659Z,436.97
2019-01-13T02:17:04.925Z,437.57
2019-01-13T02:19:09.212Z,441.37
2019-01-13T02:21:13.833Z,425.17
2019-01-13T02:23:18.671Z,422.80
2019-01-13T02:25:27.785Z,423.77
2019-01-13T02:27:32.041Z,407.93
2019-01-13T02:29:36.264Z,407.90
2019-01-13T02:31:42.741Z,402.67
2019-01-13T02:33:49.161Z,395.20
2019-01-13T02:35:58.227Z,390.73
2019-01-13T02:38:02.389Z,387.70
2019-01-13T02:40:08.472Z,375.87
2019-01-13T02:42:14.231Z,376.67
2019-01-13T02:44:18.783Z,365.97
2019-01-13T02:46:22.997Z,358.80
2019-01-13T02:48:27.861Z,358.73
2019-01-13T02:50:32.166Z,357.13
2019-01-13T02:52:36.390Z,350.07
2019-01-13T02:54:40.821Z,340.40
2019-01-13T02:56:46.025Z,335.07
2019-01-13T02:58:54.511Z,326.20
2019-01-13T03:00:59.609Z,327.40
2019-01-13T03:03:05.726Z,324.13
2019-01-13T03:05:09.977Z,316.83
2019-01-13T03:07:14.942Z,305.07
2019-01-13T03:09:21.082Z,306.17
2019-01-13T03:11:33.718Z,297.67
2019-01-13T03:13:37.902Z,293.70
2019-01-13T03:15:42.224Z,295.80
2019-01-13T03:17:46.640Z,294.47
2019-01-13T03:19:50.847Z,282.47
2019-01-13T03:21:55.006Z,283.23
2019-01-13T03:23:59.434Z,273.37
2019-01-13T03:26:03.622Z,278.03
2019-01-13T03:28:07.833Z,264.03
2019-01-13T03:30:17.700Z,259.07
2019-01-13T03:32:21.941Z,262.53
2019-01-13T03:34:26.139Z,255.10
2019-01-13T03:36:30.339Z,251.00
2019-01-13T03:38:34.547Z,247.17
2019-01-13T03:40:41.702Z,243.53
2019-01-13T03:42:45.959Z,233.73
2019-01-13T03:44:50.173Z,232.43
2019-01-13T03:46:55.696Z,230.70
2019-01-13T03:49:00.730Z,220.43
2019-01-13T03:51:06.710Z,222.03
2019-01-13T03:53:11.648Z,211.53
2019-01-13T03:55:19.102Z,211.43
2019-01-13T03:57:26.896Z,208.53
2019-01-13T03:59:31.527Z,201.47
2019-01-13T04:01:39.353Z,199.37
2019-01-13T04:03:46.572Z,194.97
2019-01-13T04:05:50.999Z,189.83
2019-01-13T04:07:55.161Z,182.17
2019-01-13T04:09:59.520Z,179.43
2019-01-13T04:12:06.692Z,177.87
2019-01-13T04:14:11.198Z,174.10
2019-01-13T04:16:15.764Z,167.30
2019-01-13T04:18:20.310Z,162.70
2019-01-13T04:20:26.059Z,163.47
2019-01-13T04:22:35.325Z,156.17
2019-01-13T04:24:40.283Z,154.80
2019-01-13T04:26:47.185Z,153.70
2019-01-13T04:28:51.710Z,153.13
2019-01-13T04:30:56.283Z,148.47
2019-01-13T04:33:01.159Z,146.70
2019-01-13T04:35:06.030Z,142.10
2019-01-13T04:37:10.384Z,142.40
2019-01-13T04:39:15.338Z,137.43
2019-01-13T04:41:19.832Z,137.60
2019-01-13T04:43:24.052Z,132.47
2019-01-13T04:45:29.072Z,130.60
2019-01-13T04:47:37.049Z,126.67
2019-01-13T04:49:43.733Z,127.90
2019-01-13T04:51:51.170Z,127.23
2019-01-13T04:53:55.431Z,123.83
2019-01-13T04:56:00.823Z,120.87
2019-01-13T04:58:05.199Z,118.50
2019-01-13T05:00:13.188Z,115.10
2019-01-13T05:02:18.012Z,109.53
2019-01-13T05:04:22.251Z,114.10
2019-01-13T05:06:26.786Z,112.73
2019-01-13T05:08:31.527Z,110.30
2019-01-13T05:10:35.733Z,106.93
2019-01-13T05:12:43.773Z,103.13
2019-01-13T05:14:54.460Z,101.97
2019-01-13T05:16:58.691Z,100.23
2019-01-13T05:19:02.944Z,101.83
2019-01-13T05:21:07.244Z,98.60
2019-01-13T05:23:11.535Z,96.17
2019-01-13T05:25:16.090Z,93.30
2019-01-13T05:27:20.294Z,93.30
2019-01-13T05:29:27.789Z,90.97
2019-01-13T05:31:31.972Z,84.87
2019-01-13T05:33:36.305Z,88.53
2019-01-13T05:35:40.530Z,86.23
2019-01-13T05:37:44.884Z,83.93
2019-01-13T05:39:49.453Z,84.07
2019-01-13T05:41:53.712Z,81.17
2019-01-13T05:43:58.081Z,78.53
2019-01-13T05:46:02.571Z,78.50
2019-01-13T05:48:07.236Z,81.60
2019-01-13T05:50:16.951Z,77.47
2019-01-13T05:52:27.014Z,73.13
2019-01-13T05:54:31.213Z,69.03
2019-01-13T05:56:35.391Z,69.97
2019-01-13T05:58:40.005Z,70.90
2019-01-13T06:00:44.989Z,70.47
2019-01-13T06:02:49.258Z,68.00
2019-01-13T06:04:53.478Z,67.83
2019-01-13T06:06:58.121Z,66.90
2019-01-13T06:09:04.835Z,63.43
2019-01-13T06:11:25.198Z,63.60
2019-01-13T06:13:30.029Z,62.10
2019-01-13T06:15:45.862Z,62.07
2019-01-13T06:17:51.690Z,58.90
2019-01-13T06:19:56.326Z,57.27
2019-01-13T06:22:00.489Z,57.30
2019-01-13T06:24:05.134Z,57.10
2019-01-13T06:26:09.748Z,55.50
2019-01-13T06:28:15.068Z,54.23
2019-01-13T06:30:23.623Z,53.53
2019-01-13T06:32:30.565Z,52.33
2019-01-13T06:34:35.146Z,52.20
2019-01-13T06:36:39.773Z,52.13
2019-01-13T06:38:44.628Z,51.13
2019-01-13T06:40:49.194Z,49.13
2019-01-13T06:42:53.354Z,48.53
2019-01-13T06:44:58.824Z,47.20
2019-01-13T06:47:03.023Z,46.83
2019-01-13T06:49:07.415Z,46.17
2019-01-13T06:51:12.435Z,45.83
2019-01-13T06:53:17.046Z,45.60
2019-01-13T06:55:25.415Z,45.33
2019-01-13T06:57:35.826Z,44.73
2019-01-13T06:59:40.602Z,43.20
2019-01-13T07:01:44.817Z,40.40
2019-01-13T07:03:49.464Z,40.37
2019-01-13T07:05:53.641Z,41.80
2019-01-13T07:07:57.970Z,38.87
2019-01-13T07:10:02.253Z,38.50
2019-01-13T07:12:06.393Z,68.87
2019-01-13T07:14:11.324Z,131.93
2019-01-13T07:16:15.514Z,249.17
2019-01-13T07:18:20.256Z,269.33
2019-01-13T07:20:27.867Z,268.70
2019-01-13T07:22:35.865Z,254.47
2019-01-13T07:24:40.969Z,253.60
2019-01-13T07:26:45.187Z,237.50
2019-01-13T07:28:49.419Z,233.43
2019-01-13T07:30:53.709Z,232.43
2019-01-13T07:32:57.978Z,217.07
2019-01-13T07:35:02.621Z,210.93
2019-01-13T07:37:07.317Z,211.83
2019-01-13T07:39:11.500Z,206.40
2019-01-13T07:41:16.368Z,200.37
2019-01-13T07:43:20.568Z,192.57
2019-01-13T07:45:27.378Z,187.57
2019-01-13T07:47:35.817Z,178.17
2019-01-13T07:49:41.793Z,173.30
2019-01-13T07:51:47.941Z,175.43
2019-01-13T07:53:52.098Z,168.33
2019-01-13T07:55:56.262Z,167.40
2019-01-13T07:58:00.645Z,162.53
2019-01-13T08:00:06.065Z,158.60
2019-01-13T08:02:17.795Z,158.07
2019-01-13T08:04:19.454Z,152.53
2019-01-13T08:06:24.593Z,145.50
2019-01-13T08:08:31.924Z,144.60
2019-01-13T08:10:39.748Z,143.37
2019-01-13T08:12:51.107Z,138.93
2019-01-13T08:14:56.325Z,134.97
2019-01-13T08:17:04.661Z,133.50
2019-01-13T08:19:12.029Z,134.10
2019-01-13T08:21:16.927Z,128.90
2019-01-13T08:23:21.627Z,121.27
2019-01-13T08:25:29.593Z,128.20
2019-01-13T08:27:35.879Z,123.80
2019-01-13T08:29:41.901Z,124.37
2019-01-13T08:31:51.033Z,114.67
2019-01-13T08:33:56.813Z,116.20
2019-01-13T08:36:02.172Z,112.53
2019-01-13T08:38:06.853Z,109.50
2019-01-13T08:40:16.497Z,108.73
2019-01-13T08:42:22.629Z,109.10
2019-01-13T08:44:28.005Z,107.10
2019-01-13T08:46:32.462Z,102.33
2019-01-13T08:48:37.696Z,101.50
2019-01-13T08:50:47.252Z,98.67
2019-01-13T08:52:59.645Z,98.17
2019-01-13T08:55:13.989Z,94.70
2019-01-13T08:57:18.353Z,90.97
2019-01-13T08:59:38.167Z,92.40
2019-01-13T09:01:35.387Z,87.93
2019-01-13T09:03:40.302Z,88.20
2019-01-13T09:05:44.667Z,86.23
2019-01-13T09:07:51.528Z,79.67
2019-01-13T09:09:55.996Z,82.07
2019-01-13T09:12:04.742Z,79.60
2019-01-13T09:14:14.990Z,77.60
2019-01-13T09:16:24.840Z,75.87
2019-01-13T09:18:35.161Z,69.93
2019-01-13T09:20:40.905Z,73.77
2019-01-13T09:22:45.645Z,70.00
2019-01-13T09:24:58.319Z,69.13
2019-01-13T09:27:05.118Z,68.37
2019-01-13T09:29:10.834Z,65.33
2019-01-13T09:31:19.262Z,62.50
2019-01-13T09:33:25.840Z,63.80
2019-01-13T09:35:34.807Z,60.10
2019-01-13T09:37:44.700Z,62.67
2019-01-13T09:39:52.182Z,58.20
2019-01-13T09:41:56.977Z,58.43
2019-01-13T09:44:03.578Z,57.83
2019-01-13T09:46:09.892Z,58.07
2019-01-13T09:48:17.106Z,53.63
2019-01-13T09:50:28.990Z,53.97
2019-01-13T09:52:36.780Z,54.47
2019-01-13T09:54:41.101Z,52.00
2019-01-13T09:56:45.316Z,52.33
2019-01-13T09:58:50.972Z,51.40
2019-01-13T10:00:55.375Z,48.43
2019-01-13T10:03:04.177Z,46.57
2019-01-13T10:05:19.897Z,48.33
2019-01-13T10:07:30.323Z,44.80
2019-01-13T10:09:38.740Z,49.37
2019-01-13T10:11:49.314Z,102.93
2019-01-13T10:13:59.031Z,110.77
2019-01-13T10:16:08.791Z,74.50
2019-01-13T10:18:14.520Z,123.43
2019-01-13T10:20:25.740Z,53.20
2019-01-13T10:22:33.763Z,85.30
2019-01-13T10:24:43.888Z,269.33
2019-01-13T10:26:52.227Z,53.57
2019-01-13T10:28:58.234Z,79.60
2019-01-13T10:31:13.694Z,61.03
2019-01-13T10:33:18.370Z,47.50
2019-01-13T10:35:23.783Z,169.17
2019-01-13T10:37:31.563Z,48.40
2019-01-13T10:39:45.380Z,41.47
2019-01-13T10:41:51.857Z,38.37
2019-01-13T10:43:56.244Z,35.77
2019-01-13T10:46:00.874Z,37.57
2019-01-13T10:48:05.140Z,35.47
2019-01-13T10:50:13.010Z,34.07
2019-01-13T10:52:17.548Z,32.20
2019-01-13T10:54:23.033Z,32.97
2019-01-13T10:56:30.654Z,54.03
2019-01-13T10:58:37.920Z,669.77
2019-01-13T11:00:44.744Z,276.07
2019-01-13T11:02:48.996Z,392.80
2019-01-13T11:04:54.161Z,418.33
2019-01-13T11:07:04.545Z,605.80
2019-01-13T11:09:14.649Z,697.70
2019-01-13T11:11:23.254Z,477.27
2019-01-13T11:13:30.911Z,636.67
2019-01-13T11:15:41.465Z,143.17
2019-01-13T11:17:50.822Z,413.57
2019-01-13T11:19:55.216Z,324.47
2019-01-13T11:21:59.966Z,82.73
2019-01-13T11:24:04.847Z,397.53
2019-01-13T11:26:09.753Z,81.20
2019-01-13T11:28:14.426Z,90.37
2019-01-13T11:30:20.400Z,90.23
2019-01-13T11:32:24.618Z,489.67
2019-01-13T11:34:29.658Z,428.27
2019-01-13T11:36:37.098Z,146.13
2019-01-13T11:38:42.136Z,386.27
2019-01-13T11:40:50.362Z,164.07
2019-01-13T11:42:54.887Z,77.83
2019-01-13T11:44:59.118Z,34.60
2019-01-13T11:47:03.610Z,26.30
2019-01-13T11:49:08.777Z,23.90
2019-01-13T11:51:13.515Z,23.83
2019-01-13T11:53:18.386Z,21.10
2019-01-13T11:55:23.955Z,21.27
2019-01-13T11:57:28.738Z,19.97
2019-01-13T11:59:36.381Z,18.97
2019-01-13T12:01:41.992Z,18.17
2019-01-13T12:03:49.790Z,17.30
2019-01-13T12:05:57.698Z,17.87
2019-01-13T12:08:12.258Z,18.20
2019-01-13T12:10:26.832Z,18.07
2019-01-13T12:12:31.887Z,16.57
2019-01-13T12:14:47.464Z,15.60
2019-01-13T12:16:56.763Z,16.43
2019-01-13T12:19:08.363Z,15.93
2019-01-13T12:21:24.883Z,14.07
2019-01-13T12:23:35.406Z,14.73
2019-01-13T12:26:04.454Z,14.00
2019-01-13T12:28:17.443Z,15.10
2019-01-13T12:30:31.077Z,14.30
2019-01-13T12:35:32.725Z,13.40
2019-01-13T12:37:48.077Z,26.80
2019-01-13T12:42:33.644Z,21.43
2019-01-13T12:44:59.244Z,13.87
2019-01-13T12:47:15.268Z,13.97
2019-01-13T12:52:09.928Z,10.50
2019-01-13T12:54:35.891Z,12.13
2019-01-13T12:56:54.719Z,11.83
2019-01-13T12:59:31.956Z,10.40
2019-01-13T13:04:54.291Z,9.27
2019-01-13T13:07:22.495Z,9.30
2019-01-13T13:09:47.159Z,10.30
2019-01-13T13:11:54.757Z,9.80
2019-01-13T13:14:10.243Z,9.13
2019-01-13T13:16:29.844Z,10.10
2019-01-13T13:18:57.930Z,9.33
2019-01-13T13:21:14.512Z,9.23
2019-01-13T13:25:55.341Z,8.37
2019-01-13T13:28:00.839Z,8.87
2019-01-13T13:30:34.505Z,7.83
2019-01-13T13:32:46.020Z,8.33
2019-01-13T13:35:24.640Z,7.70
2019-01-13T13:37:45.579Z,7.80
2019-01-13T13:40:09.307Z,8.07
2019-01-13T13:42:13.882Z,7.07
2019-01-13T13:44:54.664Z,6.07
2019-01-13T13:47:11.836Z,7.10
2019-01-13T13:49:59.790Z,6.67
2019-01-13T13:52:07.688Z,6.57
2019-01-13T13:54:20.194Z,5.87
2019-01-13T13:56:29.063Z,6.63
2019-01-13T13:59:14.216Z,6.50
2019-01-13T14:01:38.889Z,5.73
2019-01-13T14:03:46.376Z,5.57
2019-01-13T14:05:54.798Z,5.47
2019-01-13T14:08:10.097Z,6.13
2019-01-13T14:10:22.934Z,5.50
2019-01-13T14:12:28.939Z,5.00
2019-01-13T14:14:34.033Z,5.40
2019-01-13T14:16:38.919Z,4.50
2019-01-13T14:18:43.186Z,4.97
2019-01-13T14:20:49.282Z,5.07
2019-01-13T14:22:57.148Z,4.90
2019-01-13T14:25:07.704Z,4.80
2019-01-13T14:27:21.462Z,5.30
2019-01-13T14:29:28.894Z,4.80
2019-01-13T14:31:36.580Z,267.20
2019-01-13T14:33:44.524Z,26.37
2019-01-13T14:35:55.224Z,6.60
2019-01-13T14:38:05.296Z,5.40
2019-01-13T14:40:20.369Z,4.80
2019-01-13T14:42:24.633Z,5.00
2019-01-13T14:44:30.140Z,4.37
2019-01-13T14:46:38.452Z,4.40
2019-01-13T14:48:42.961Z,4.00
2019-01-13T14:50:47.536Z,4.30
2019-01-13T14:52:52.413Z,4.03
2019-01-13T14:54:57.421Z,4.93
2019-01-13T14:57:03.117Z,6.60
2019-01-13T14:59:09.301Z,96.57
2019-01-13T15:01:29.023Z,53.43
2019-01-13T15:03:33.324Z,5.87
2019-01-13T15:05:37.519Z,3.90
2019-01-13T15:07:41.675Z,4.40
2019-01-13T15:09:47.656Z,3.60
2019-01-13T15:11:52.226Z,4.03
2019-01-13T15:13:57.006Z,3.57
2019-01-13T15:16:05.776Z,3.23
2019-01-13T15:18:25.052Z,4.03
2019-01-13T15:20:31.713Z,245.47
2019-01-13T15:22:36.198Z,381.97
2019-01-13T15:24:42.365Z,568.70
2019-01-13T15:26:50.617Z,394.40
2019-01-13T15:29:03.586Z,269.90
2019-01-13T15:31:10.476Z,38.83
2019-01-13T15:33:16.896Z,10.90
2019-01-13T15:35:23.212Z,4.97
2019-01-13T15:37:27.969Z,20.57
2019-01-13T15:39:34.303Z,541.30
2019-01-13T15:41:41.831Z,60.27
2019-01-13T15:43:51.944Z,5.30
2019-01-13T15:46:04.049Z,3.50
2019-01-13T15:48:15.113Z,3.60
2019-01-13T15:50:33.330Z,2.80
2019-01-13T15:52:44.879Z,3.40
2019-01-13T15:54:51.696Z,2.60
2019-01-13T15:57:05.436Z,2.60
2019-01-13T15:59:12.106Z,2.43
2019-01-13T16:01:18.174Z,2.87
2019-01-13T16:03:24.691Z,2.50
2019-01-13T16:05:29.066Z,2.60
2019-01-13T16:07:37.590Z,3.03
2019-01-13T16:09:51.109Z,4.37
2019-01-13T16:11:59.746Z,400.27
2019-01-13T16:14:09.192Z,62.63
2019-01-13T16:16:17.644Z,676.23
2019-01-13T16:18:23.646Z,22.70
2019-01-13T16:20:39.641Z,5.77
2019-01-13T16:22:52.227Z,161.23
2019-01-13T16:25:02.651Z,773.63
2019-01-13T16:27:12.018Z,110.43
2019-01-13T16:29:20.173Z,42.23
2019-01-13T16:31:32.362Z,613.27
2019-01-13T16:33:38.247Z,856.47
2019-01-13T16:35:45.669Z,318.70
2019-01-13T16:38:09.937Z,49.67
2019-01-13T16:40:38.290Z,8.50
2019-01-13T16:42:42.533Z,601.83
2019-01-13T16:44:46.882Z,657.50
2019-01-13T16:46:52.216Z,358.73
2019-01-13T16:49:00.307Z,407.13
2019-01-13T16:51:12.511Z,115.37
2019-01-13T16:53:30.748Z,222.83
2019-01-13T16:55:38.370Z,19.50
2019-01-13T16:57:42.796Z,34.47
2019-01-13T16:59:49.640Z,16.87
2019-01-13T17:01:55.544Z,6.20
2019-01-13T17:04:03.480Z,6.73
2019-01-13T17:06:11.560Z,311.27
2019-01-13T17:08:17.328Z,7.87
2019-01-13T17:10:25.719Z,6.50
2019-01-13T17:12:31.056Z,9.40
2019-01-13T17:14:36.349Z,19.37
2019-01-13T17:16:40.840Z,138.07
2019-01-13T17:18:47.144Z,6.23
2019-01-13T17:20:51.385Z,12.23
2019-01-13T17:22:57.775Z,6.87
2019-01-13T17:25:05.112Z,5.77
2019-01-13T17:27:15.977Z,6.07
2019-01-13T17:29:20.412Z,5.23
2019-01-13T17:31:24.874Z,5.57
2019-01-13T17:33:29.052Z,4.63
2019-01-13T17:35:33.341Z,4.50
2019-01-13T17:37:37.516Z,4.60
2019-01-13T17:39:42.400Z,4.80
2019-01-13T17:41:47.561Z,4.73
2019-01-13T17:43:53.282Z,4.57
2019-01-13T17:46:01.095Z,4.77
2019-01-13T17:48:11.833Z,4.00
2019-01-13T17:50:19.457Z,3.50
2019-01-13T17:52:37.358Z,4.37
2019-01-13T17:54:45.067Z,3.20
2019-01-13T17:56:53.339Z,4.47
2019-01-13T17:59:06.385Z,4.57
2019-01-13T18:01:37.688Z,4.07
2019-01-13T18:03:48.514Z,3.37
2019-01-13T18:05:55.082Z,3.80
2019-01-13T18:08:02.493Z,2.90
2019-01-13T18:10:09.602Z,3.57
2019-01-13T18:12:15.898Z,361.97
2019-01-13T18:14:23.753Z,12.03
2019-01-13T18:16:30.335Z,3.80
2019-01-13T18:18:37.466Z,18.30
2019-01-13T18:20:41.907Z,3.40
2019-01-13T18:22:48.195Z,5.93
2019-01-13T18:24:53.026Z,23.50
2019-01-13T18:26:57.641Z,187.27
2019-01-13T18:29:03.162Z,56.40
2019-01-13T18:31:08.449Z,14.00
2019-01-13T18:33:18.088Z,7.63
2019-01-13T18:35:38.047Z,4.27
2019-01-13T18:37:44.336Z,6.87
2019-01-13T18:39:50.610Z,3.10
2019-01-13T18:41:56.549Z,6.07
2019-01-13T18:44:01.943Z,15.43
2019-01-13T18:46:07.772Z,3.10
2019-01-13T18:48:12.169Z,3.07
2019-01-13T18:50:18.282Z,23.67
2019-01-13T18:52:24.042Z,276.73
2019-01-13T18:54:28.374Z,70.87
2019-01-13T18:56:33.450Z,188.20
2019-01-13T18:58:37.726Z,69.63
2019-01-13T19:00:42.882Z,114.90
2019-01-13T19:02:58.504Z,111.10
2019-01-13T19:05:05.391Z,34.10
2019-01-13T19:07:09.831Z,6.93
2019-01-13T19:09:17.463Z,4.30
2019-01-13T19:11:31.307Z,133.73
2019-01-13T19:13:57.209Z,45.03
2019-01-13T19:16:07.616Z,11.93
2019-01-13T19:18:12.358Z,4.10
2019-01-13T19:20:22.762Z,2.93
2019-01-13T19:22:28.829Z,7.10
2019-01-13T19:24:33.437Z,3.97
2019-01-13T19:26:37.805Z,2.63
2019-01-13T19:28:42.224Z,150.07
2019-01-13T19:30:47.881Z,37.70
2019-01-13T19:32:55.545Z,3.67
2019-01-13T19:35:09.012Z,2.50
2019-01-13T19:37:13.369Z,1.70
2019-01-13T19:39:18.091Z,1.80
2019-01-13T19:41:22.614Z,6.27
2019-01-13T19:43:27.618Z,11.53
2019-01-13T19:45:32.198Z,2.93
2019-01-13T19:47:37.280Z,482.03
2019-01-13T19:49:49.789Z,43.87
2019-01-13T19:51:59.235Z,4.47
2019-01-13T19:54:10.534Z,2.10
2019-01-13T19:56:22.784Z,1.87
2019-01-13T19:58:27.946Z,2.00
2019-01-13T20:00:34.296Z,12.50
2019-01-13T20:02:40.589Z,26.47
2019-01-13T20:04:45.185Z,5.37
2019-01-13T20:06:49.922Z,1.70
2019-01-13T20:08:57.677Z,1.70
2019-01-13T20:11:06.170Z,1.63
2019-01-13T20:13:11.649Z,1.40
2019-01-13T20:15:16.050Z,1.40
2019-01-13T20:17:20.592Z,1.27
2019-01-13T20:19:27.937Z,1.50
2019-01-13T20:21:32.457Z,1.47
2019-01-13T20:23:37.279Z,4.47
2019-01-13T20:25:42.079Z,8.17
2019-01-13T20:27:46.517Z,478.07
2019-01-13T20:29:50.887Z,87.77
2019-01-13T20:31:56.911Z,337.30
2019-01-13T20:34:05.070Z,224.00
2019-01-13T20:36:10.397Z,60.30
2019-01-13T20:38:18.436Z,8.20
2019-01-13T20:40:23.115Z,2.70
2019-01-13T20:42:28.276Z,21.60
2019-01-13T20:44:32.698Z,47.03
2019-01-13T20:46:37.149Z,11.30
2019-01-13T20:48:42.100Z,10.20
2019-01-13T20:50:46.976Z,9.40
2019-01-13T20:52:52.136Z,16.40
2019-01-13T20:54:56.773Z,75.27
2019-01-13T20:57:03.927Z,110.17
2019-01-13T20:59:09.883Z,35.20
2019-01-13T21:01:24.378Z,9.00
2019-01-13T21:03:29.055Z,117.60
2019-01-13T21:05:36.727Z,22.43
2019-01-13T21:07:41.450Z,3.03
2019-01-13T21:09:46.707Z,1.97
2019-01-13T21:11:51.997Z,2.10
2019-01-13T21:13:56.805Z,23.03
2019-01-13T21:16:01.191Z,117.03
2019-01-13T21:18:08.327Z,45.87
2019-01-13T21:20:13.580Z,8.80
2019-01-13T21:22:18.641Z,2.60
2019-01-13T21:24:26.491Z,1.70
2019-01-13T21:26:34.182Z,1.57
2019-01-13T21:28:39.198Z,7.87
2019-01-13T21:30:44.023Z,2.43
2019-01-13T21:32:48.387Z,1.20
2019-01-13T21:34:53.044Z,1.37
2019-01-13T21:37:00.399Z,2.03
2019-01-13T21:39:08.413Z,72.20
2019-01-13T21:41:15.345Z,6.33
2019-01-13T21:43:27.133Z,5.87
2019-01-13T21:45:36.530Z,5.10
2019-01-13T21:47:42.489Z,293.50
2019-01-13T21:49:47.896Z,115.20
2019-01-13T21:51:53.100Z,22.23
2019-01-13T21:53:57.551Z,3.47
2019-01-13T21:56:02.074Z,2.43
2019-01-13T21:58:07.850Z,17.67
2019-01-13T22:00:15.786Z,465.13
2019-01-13T22:02:26.759Z,250.73
2019-01-13T22:04:32.471Z,752.13
2019-01-13T22:06:37.249Z,464.67
2019-01-13T22:08:41.684Z,162.40
2019-01-13T22:10:46.392Z,59.50
2019-01-13T22:12:53.004Z,14.43
2019-01-13T22:14:58.641Z,4.87
2019-01-13T22:17:05.862Z,316.77
2019-01-13T22:19:10.774Z,84.27
2019-01-13T22:21:15.150Z,11.33
2019-01-13T22:23:19.739Z,2.57
2019-01-13T22:25:24.065Z,1.70
2019-01-13T22:27:28.335Z,1.53
2019-01-13T22:29:32.690Z,1.47
2019-01-13T22:31:37.154Z,1.17
2019-01-13T22:33:43.805Z,1.33
2019-01-13T22:35:53.824Z,0.97
2019-01-13T22:38:04.485Z,1.10
2019-01-13T22:40:11.241Z,1.50
2019-01-13T22:42:15.472Z,1.20
2019-01-13T22:44:19.718Z,1.20
2019-01-13T22:46:23.833Z,1.23
2019-01-13T22:48:28.029Z,1.10
2019-01-13T22:50:32.182Z,1.03
2019-01-13T22:52:36.484Z,1.30
2019-01-13T22:54:40.653Z,1.10
2019-01-13T22:56:44.900Z,1.07
2019-01-13T22:58:49.276Z,0.80
2019-01-13T23:01:16.854Z,1.43
2019-01-13T23:03:21.203Z,0.90
2019-01-13T23:05:26.368Z,1.20
2019-01-13T23:07:31.017Z,1.40
2019-01-13T23:09:35.169Z,1.07
2019-01-13T23:11:39.353Z,0.97
2019-01-13T23:13:43.644Z,0.97
2019-01-13T23:15:47.948Z,0.90
2019-01-13T23:17:52.488Z,0.90
2019-01-13T23:19:59.997Z,1.13
2019-01-13T23:22:10.194Z,0.90
2019-01-13T23:24:14.696Z,0.97
2019-01-13T23:26:19.028Z,1.17
2019-01-13T23:28:23.754Z,1.00
2019-01-13T23:30:28.199Z,0.97
2019-01-13T23:32:32.361Z,0.93
2019-01-13T23:34:36.677Z,0.93
2019-01-13T23:36:41.012Z,0.80
2019-01-13T23:38:45.388Z,1.10
2019-01-13T23:40:49.528Z,1.00
2019-01-13T23:42:53.829Z,1.10
2019-01-13T23:44:58.904Z,1.13
2019-01-13T23:47:04.883Z,1.10
2019-01-13T23:49:12.778Z,0.73
2019-01-13T23:51:22.286Z,0.90
2019-01-13T23:53:26.674Z,1.07
2019-01-13T23:55:30.913Z,0.80
2019-01-13T23:57:39.273Z,0.90
2019-01-13T23:59:43.488Z,0.90
